Terminal Aerodrome Forecast
Issued by NWS Sioux Falls, SD

Home | Current Version | Previous Version | Text Only | Print | Product List | Glossary On
Versions: 1 2 3 4 5 6 7 8 9 10 11 12 13 14 15 16 17 18 19 20 21 22 23 24 25
000
FTUS43 KFSD 020520
TAFSUX
TAF
KSUX 020520Z 0206/0306 15009KT P6SM SCT200
     FM021000 15009KT P6SM SCT200 WS015/20035KT
      TEMPO 0211/0214 4SM BR
     FM021500 17011G17KT P6SM SKC
     FM021900 18015G23KT P6SM SKC
     FM030100 15009KT P6SM SKC=

USA.gov is the U.S. government's official web portal to all federal, state and local government web resources and services.